createdAt,value
2022-10-17T00:00:06.884Z,26.58
2022-10-17T00:05:13.444Z,20.02
2022-10-17T00:10:18.998Z,27.17
2022-10-17T00:15:24.761Z,26.77
2022-10-17T00:20:31.771Z,19.92
2022-10-17T00:25:41.914Z,28.92
2022-10-17T00:30:47.499Z,28.85
2022-10-17T00:35:52.638Z,23.30
2022-10-17T00:40:58.157Z,20.90
2022-10-17T00:46:03.456Z,22.08
2022-10-17T00:51:08.976Z,25.35
2022-10-17T00:56:15.307Z,29.25
2022-10-17T01:01:21.780Z,26.55
2022-10-17T01:06:27.198Z,24.30
2022-10-17T01:11:39.944Z,38.40
2022-10-17T01:16:45.656Z,25.80
2022-10-17T01:21:59.424Z,30.30
2022-10-17T01:27:16.059Z,21.95
2022-10-17T01:32:26.373Z,28.30
2022-10-17T01:37:35.803Z,37.00
2022-10-17T01:42:59.140Z,31.48
2022-10-17T01:48:07.094Z,28.70
2022-10-17T01:53:16.628Z,22.23
2022-10-17T01:58:22.094Z,25.67
2022-10-17T02:03:28.439Z,26.40
2022-10-17T02:08:45.337Z,25.85
2022-10-17T02:13:59.486Z,34.03
2022-10-17T02:19:10.617Z,23.63
2022-10-17T02:24:36.186Z,29.35
2022-10-17T02:29:52.239Z,26.53
2022-10-17T02:34:58.817Z,27.52
2022-10-17T02:40:06.267Z,32.13
2022-10-17T02:45:17.076Z,27.98
2022-10-17T02:50:30.245Z,34.35
2022-10-17T02:55:42.003Z,31.63
2022-10-17T03:00:49.770Z,28.02
2022-10-17T03:05:55.745Z,29.95
2022-10-17T03:11:03.891Z,31.58
2022-10-17T03:16:11.054Z,25.98
2022-10-17T03:21:17.144Z,29.70
2022-10-17T03:31:30.015Z,25.50
2022-10-17T03:36:40.503Z,29.60
2022-10-17T03:41:45.913Z,20.70
2022-10-17T03:46:52.816Z,21.40
2022-10-17T03:57:06.694Z,21.30
2022-10-17T04:02:14.943Z,22.50
2022-10-17T04:07:21.553Z,22.90
2022-10-17T04:17:37.238Z,21.48
2022-10-17T04:22:44.939Z,23.63
2022-10-17T04:27:52.486Z,18.98
2022-10-17T04:32:58.171Z,18.48
2022-10-17T04:38:05.896Z,22.77
2022-10-17T04:43:11.303Z,19.30
2022-10-17T04:53:21.641Z,17.15
2022-10-17T04:58:27.126Z,17.08
2022-10-17T05:03:36.676Z,24.20
2022-10-17T05:08:43.000Z,13.48
2022-10-17T05:13:52.816Z,21.33
2022-10-17T05:18:59.726Z,18.27
2022-10-17T05:24:11.224Z,27.10
2022-10-17T05:29:17.743Z,17.88
2022-10-17T05:34:28.393Z,17.48
2022-10-17T05:39:33.816Z,20.02
2022-10-17T05:44:40.925Z,20.13
2022-10-17T05:49:51.521Z,16.27
2022-10-17T05:55:03.927Z,15.02
2022-10-17T06:00:19.174Z,19.40
2022-10-17T06:05:33.668Z,20.40
2022-10-17T06:10:39.079Z,21.45
2022-10-17T06:15:44.267Z,15.20
2022-10-17T06:20:53.351Z,17.70
2022-10-17T06:26:03.338Z,14.43
2022-10-17T06:31:10.437Z,14.27
2022-10-17T06:36:16.580Z,18.45
2022-10-17T06:41:23.098Z,21.10
2022-10-17T06:46:31.248Z,19.38
2022-10-17T06:51:39.698Z,23.40
2022-10-17T06:56:48.093Z,15.05
2022-10-17T07:02:25.562Z,14.35
2022-10-17T07:07:38.864Z,20.27
2022-10-17T07:12:47.054Z,19.95
2022-10-17T07:17:52.665Z,17.80
2022-10-17T07:28:03.556Z,15.07
2022-10-17T07:33:10.393Z,14.65
2022-10-17T07:38:16.228Z,16.98
2022-10-17T07:43:21.603Z,13.65
2022-10-17T07:53:32.489Z,16.48
2022-10-17T07:58:38.272Z,17.42
2022-10-17T08:03:46.552Z,19.50
2022-10-17T08:08:54.911Z,17.27
2022-10-17T08:14:00.344Z,25.98
2022-10-17T08:19:06.065Z,21.33
2022-10-17T08:24:11.996Z,13.80
2022-10-17T08:29:17.856Z,18.27
2022-10-17T08:34:27.020Z,24.77
2022-10-17T08:39:32.177Z,19.77
2022-10-17T08:44:46.312Z,14.03
2022-10-17T08:49:57.140Z,18.20
2022-10-17T08:55:02.643Z,14.63
2022-10-17T09:00:19.398Z,20.08
2022-10-17T09:05:34.577Z,16.13
2022-10-17T09:10:44.569Z,21.10
2022-10-17T09:16:13.977Z,20.02
2022-10-17T09:21:27.926Z,15.85
2022-10-17T09:26:33.317Z,13.30
2022-10-17T09:31:45.928Z,20.38
2022-10-17T09:36:51.344Z,13.65
2022-10-17T09:41:57.263Z,16.17
2022-10-17T09:47:02.865Z,23.33
2022-10-17T09:57:14.251Z,22.33
2022-10-17T10:02:21.175Z,25.25
2022-10-17T10:07:29.221Z,18.88
2022-10-17T10:12:36.671Z,20.95
2022-10-17T10:17:44.078Z,23.55
2022-10-17T10:23:07.160Z,22.00
2022-10-17T10:28:13.398Z,21.77
2022-10-17T10:33:18.490Z,22.85
2022-10-17T10:38:24.065Z,23.00
2022-10-17T10:48:49.414Z,16.27
2022-10-17T10:53:58.275Z,27.83
2022-10-17T10:59:06.620Z,28.17
2022-10-17T11:04:18.231Z,28.55
2022-10-17T11:09:28.820Z,30.95
2022-10-17T11:14:37.134Z,26.95
2022-10-17T11:24:58.418Z,32.67
2022-10-17T11:30:05.252Z,34.33
2022-10-17T11:35:31.159Z,29.23
2022-10-17T11:40:38.474Z,32.20
2022-10-17T11:45:58.069Z,24.80
2022-10-17T11:56:54.119Z,46.27
2022-10-17T12:02:01.737Z,41.60
2022-10-17T12:07:20.117Z,51.05
2022-10-17T12:12:30.343Z,45.90
2022-10-17T12:17:40.580Z,54.00
2022-10-17T12:23:15.613Z,44.67
2022-10-17T12:28:40.445Z,48.10
2022-10-17T12:38:54.191Z,46.97
2022-10-17T12:44:05.350Z,46.28
2022-10-17T12:49:24.471Z,41.33
2022-10-17T12:54:37.977Z,26.85
2022-10-17T12:59:57.968Z,50.13
2022-10-17T13:05:14.219Z,54.90
2022-10-17T13:10:22.329Z,50.25
2022-10-17T13:15:27.915Z,61.30
2022-10-17T13:20:34.142Z,54.50
2022-10-17T13:25:39.739Z,55.60
2022-10-17T13:36:06.179Z,55.83
2022-10-17T13:46:43.627Z,67.88
2022-10-17T13:51:50.366Z,64.47
2022-10-17T13:56:59.261Z,71.68
2022-10-17T14:02:04.917Z,70.47
2022-10-17T14:12:30.527Z,70.28
2022-10-17T14:17:37.223Z,67.93
2022-10-17T14:22:47.045Z,76.75
2022-10-17T14:28:04.748Z,75.80
2022-10-17T14:33:15.349Z,87.00
2022-10-17T14:38:22.464Z,81.20
2022-10-17T14:43:28.824Z,91.80
2022-10-17T14:48:34.288Z,80.78
2022-10-17T14:53:40.680Z,85.07
2022-10-17T14:58:45.991Z,87.97
2022-10-17T15:03:51.347Z,82.15
2022-10-17T15:08:59.704Z,78.18
2022-10-17T15:14:10.478Z,80.40
2022-10-17T15:19:16.528Z,74.53
2022-10-17T15:24:22.713Z,73.20
2022-10-17T15:29:27.819Z,72.15
2022-10-17T15:34:33.086Z,69.17
2022-10-17T15:39:38.364Z,67.60
2022-10-17T15:44:45.728Z,83.38
2022-10-17T15:49:50.733Z,70.57
2022-10-17T15:54:57.454Z,72.53
2022-10-17T16:00:05.829Z,42.70
2022-10-17T16:05:31.858Z,51.22
2022-10-17T16:10:37.320Z,51.65
2022-10-17T16:15:45.996Z,62.60
2022-10-17T16:20:54.358Z,63.25
2022-10-17T16:25:59.700Z,55.28
2022-10-17T16:31:05.439Z,47.08
2022-10-17T16:41:22.929Z,52.53
2022-10-17T16:46:36.170Z,44.40
2022-10-17T16:51:44.596Z,36.10
2022-10-17T16:56:51.676Z,43.85
2022-10-17T17:01:57.607Z,42.50
2022-10-17T17:07:03.053Z,40.92
2022-10-17T17:12:27.852Z,35.40
2022-10-17T17:17:48.760Z,37.83
2022-10-17T17:22:54.597Z,40.25
2022-10-17T17:27:59.711Z,37.03
2022-10-17T17:33:04.828Z,37.00
2022-10-17T17:38:10.369Z,29.30
2022-10-17T17:43:15.770Z,47.13
2022-10-17T17:48:21.537Z,34.97
2022-10-17T17:53:26.979Z,48.55
2022-10-17T17:58:32.483Z,55.65
2022-10-17T18:03:37.608Z,52.10
2022-10-17T18:08:42.632Z,53.63
2022-10-17T18:14:24.994Z,40.42
2022-10-17T18:19:30.442Z,38.55
2022-10-17T18:29:42.837Z,65.65
2022-10-17T18:34:48.440Z,40.35
2022-10-17T18:39:56.632Z,47.78
2022-10-17T18:45:02.368Z,58.20
2022-10-17T18:50:08.128Z,47.92
2022-10-17T18:55:13.592Z,55.92
2022-10-17T19:00:22.641Z,46.92
2022-10-17T19:05:28.374Z,68.28
2022-10-17T19:10:38.896Z,53.47
2022-10-17T19:15:44.409Z,58.45
2022-10-17T19:20:49.468Z,58.57
2022-10-17T19:25:55.944Z,56.77
2022-10-17T19:31:08.497Z,53.72
2022-10-17T19:36:14.077Z,51.97
2022-10-17T19:46:25.721Z,49.47
2022-10-17T19:51:31.198Z,60.13
2022-10-17T19:56:41.608Z,36.20
2022-10-17T20:01:47.226Z,46.83
2022-10-17T20:12:06.327Z,50.78
2022-10-17T20:17:11.496Z,51.85
2022-10-17T20:22:16.886Z,40.00
2022-10-17T20:27:25.512Z,44.35
2022-10-17T20:32:39.432Z,42.60
2022-10-17T20:37:45.292Z,20.05
2022-10-17T20:42:50.527Z,27.33
2022-10-17T20:47:56.057Z,35.30
2022-10-17T20:53:17.903Z,43.15
2022-10-17T20:58:26.997Z,37.03
2022-10-17T21:03:32.550Z,29.52
2022-10-17T21:08:43.721Z,20.83
2022-10-17T21:13:50.753Z,31.17
2022-10-17T21:18:57.549Z,20.80
2022-10-17T21:24:04.982Z,25.17
2022-10-17T21:29:10.369Z,28.73
2022-10-17T21:34:16.642Z,30.80
2022-10-17T21:39:21.913Z,35.08
2022-10-17T21:44:28.604Z,22.08
2022-10-17T21:49:35.162Z,27.92
2022-10-17T21:54:40.504Z,18.83
2022-10-17T21:59:45.865Z,39.80
2022-10-17T22:04:51.182Z,23.05
2022-10-17T22:09:56.539Z,22.77
2022-10-17T22:15:01.698Z,32.63
2022-10-17T22:20:07.245Z,34.87
2022-10-17T22:25:12.544Z,33.03
2022-10-17T22:30:18.528Z,33.10
2022-10-17T22:35:23.633Z,24.17
2022-10-17T22:40:28.718Z,23.43
2022-10-17T22:45:34.194Z,36.17
2022-10-17T22:50:43.105Z,37.75
2022-10-17T22:55:52.665Z,38.50
2022-10-17T23:00:58.561Z,39.40
2022-10-17T23:11:08.827Z,35.13
2022-10-17T23:16:14.290Z,39.38
2022-10-17T23:21:19.374Z,33.30
2022-10-17T23:26:24.732Z,29.30
2022-10-17T23:31:30.513Z,32.07
2022-10-17T23:36:35.734Z,31.35
2022-10-17T23:41:41.636Z,27.63
2022-10-17T23:46:47.297Z,29.33
2022-10-17T23:51:52.572Z,35.22
2022-10-17T23:56:58.193Z,32.23
